createdAt,value
2024-02-26T00:02:43.288Z,21.27
2024-02-26T00:07:46.622Z,22.23
2024-02-26T00:12:48.632Z,24.15
2024-02-26T00:17:50.586Z,22.95
2024-02-26T00:22:53.923Z,22.20
2024-02-26T00:27:55.682Z,18.98
2024-02-26T00:32:57.544Z,23.05
2024-02-26T00:38:01.136Z,22.60
2024-02-26T00:43:02.957Z,22.55
2024-02-26T00:48:05.425Z,23.92
2024-02-26T00:53:08.696Z,22.98
2024-02-26T00:58:10.859Z,23.42
2024-02-26T01:03:12.809Z,19.85
2024-02-26T01:08:16.066Z,19.15
2024-02-26T01:13:17.916Z,20.73
2024-02-26T01:18:19.817Z,21.58
2024-02-26T01:23:23.320Z,21.87
2024-02-26T01:28:25.104Z,23.05
2024-02-26T01:33:27.354Z,23.25
2024-02-26T01:38:30.588Z,22.60
2024-02-26T01:43:32.386Z,21.52
2024-02-26T01:48:34.380Z,20.80
2024-02-26T01:53:37.892Z,22.73
2024-02-26T01:58:39.873Z,22.27
2024-02-26T02:03:41.872Z,21.20
2024-02-26T02:08:45.214Z,20.60
2024-02-26T02:13:47.045Z,21.45
2024-02-26T02:18:48.835Z,22.30
2024-02-26T02:23:52.448Z,23.98
2024-02-26T02:28:54.497Z,21.83
2024-02-26T02:33:56.517Z,21.48
2024-02-26T02:39:00.014Z,23.30
2024-02-26T02:44:01.858Z,22.75
2024-02-26T02:49:03.914Z,21.10
2024-02-26T02:54:07.276Z,21.40
2024-02-26T02:59:09.083Z,23.10
2024-02-26T03:04:10.987Z,22.80
2024-02-26T03:09:14.222Z,20.58
2024-02-26T03:14:16.083Z,21.70
2024-02-26T03:19:18.077Z,23.12
2024-02-26T03:24:21.532Z,23.50
2024-02-26T03:29:23.351Z,21.52
2024-02-26T03:34:25.376Z,20.35
2024-02-26T03:39:28.887Z,22.73
2024-02-26T03:44:30.714Z,21.60
2024-02-26T03:49:32.532Z,22.92
2024-02-26T03:54:35.688Z,20.48
2024-02-26T03:59:37.467Z,22.13
2024-02-26T04:04:39.253Z,22.95
2024-02-26T04:09:43.688Z,23.35
2024-02-26T04:14:45.558Z,22.10
2024-02-26T04:19:47.494Z,22.40
2024-02-26T04:24:50.726Z,22.25
2024-02-26T04:29:52.520Z,22.87
2024-02-26T04:34:54.437Z,23.17
2024-02-26T04:40:01.421Z,22.58
2024-02-26T04:45:03.753Z,22.70
2024-02-26T04:50:06.682Z,23.20
2024-02-26T04:55:10.310Z,23.42
2024-02-26T05:00:13.821Z,23.02
2024-02-26T05:05:15.755Z,23.10
2024-02-26T05:10:19.115Z,23.00
2024-02-26T05:15:20.949Z,22.58
2024-02-26T05:20:22.838Z,21.42
2024-02-26T05:25:26.403Z,23.05
2024-02-26T05:30:28.288Z,20.62
2024-02-26T05:35:30.100Z,22.05
2024-02-26T05:40:33.334Z,20.83
2024-02-26T05:45:35.211Z,20.88
2024-02-26T05:50:36.972Z,23.30
2024-02-26T05:55:40.146Z,22.20
2024-02-26T06:00:42.078Z,24.85
2024-02-26T06:05:44.180Z,23.10
2024-02-26T06:10:47.491Z,21.50
2024-02-26T06:15:49.262Z,22.50
2024-02-26T06:20:51.121Z,21.75
2024-02-26T06:25:54.482Z,23.05
2024-02-26T06:30:56.237Z,22.55
2024-02-26T06:35:58.111Z,21.40
2024-02-26T06:41:01.507Z,22.35
2024-02-26T06:46:03.553Z,21.85
2024-02-26T06:51:05.517Z,23.52
2024-02-26T06:56:08.852Z,23.12
2024-02-26T07:01:12.998Z,21.60
2024-02-26T07:06:15.040Z,22.57
2024-02-26T07:11:18.323Z,21.35
2024-02-26T07:16:20.100Z,21.80
2024-02-26T07:21:22.101Z,22.55
2024-02-26T07:26:25.382Z,22.20
2024-02-26T07:31:27.380Z,23.52
2024-02-26T07:36:29.244Z,21.52
2024-02-26T07:41:32.541Z,22.95
2024-02-26T07:46:34.458Z,22.73
2024-02-26T07:51:36.278Z,21.73
2024-02-26T07:56:39.439Z,21.85
2024-02-26T08:01:41.329Z,21.67
2024-02-26T08:06:43.277Z,23.08
2024-02-26T08:11:46.635Z,22.23
2024-02-26T08:16:48.473Z,23.15
2024-02-26T08:21:50.259Z,22.17
2024-02-26T08:26:53.486Z,22.00
2024-02-26T08:31:55.260Z,22.27
2024-02-26T08:36:57.046Z,22.77
2024-02-26T08:42:00.293Z,20.85
2024-02-26T08:47:02.160Z,22.02
2024-02-26T08:52:05.735Z,21.83
2024-02-26T08:57:09.061Z,21.65
2024-02-26T09:02:13.699Z,24.58
2024-02-26T09:07:15.482Z,22.80
2024-02-26T09:12:18.822Z,22.25
2024-02-26T09:17:20.667Z,21.23
2024-02-26T09:22:22.514Z,23.58
2024-02-26T09:27:28.332Z,20.20
2024-02-26T09:32:30.167Z,21.77
2024-02-26T09:37:31.915Z,22.35
2024-02-26T09:42:36.212Z,23.20
2024-02-26T09:47:39.367Z,22.50
2024-02-26T09:52:42.875Z,22.55
2024-02-26T09:57:47.751Z,21.12
2024-02-26T10:07:52.332Z,22.50
2024-02-26T10:12:55.523Z,22.58
2024-02-26T10:17:57.560Z,20.83
2024-02-26T10:22:59.785Z,21.45
2024-02-26T10:28:03.414Z,22.02
2024-02-26T10:33:05.731Z,23.15
2024-02-26T10:38:08.202Z,22.35
2024-02-26T10:43:11.659Z,20.17
2024-02-26T10:48:15.628Z,22.25
2024-02-26T10:53:20.804Z,21.00
2024-02-26T11:03:31.001Z,20.77
2024-02-26T11:08:33.231Z,21.10
2024-02-26T11:13:42.364Z,20.25
2024-02-26T11:18:48.240Z,20.75
2024-02-26T11:28:54.384Z,21.33
2024-02-26T11:33:58.033Z,21.40
2024-02-26T11:39:00.784Z,22.65
2024-02-26T11:44:04.235Z,22.95
2024-02-26T11:49:32.285Z,23.15
2024-02-26T11:54:57.338Z,21.50
2024-02-26T12:00:13.378Z,23.23
2024-02-26T12:05:17.281Z,21.87
2024-02-26T12:10:27.385Z,22.42
2024-02-26T12:15:34.325Z,21.45
2024-02-26T12:20:36.542Z,22.23
2024-02-26T12:25:38.407Z,20.92
2024-02-26T12:30:41.656Z,22.30
2024-02-26T12:35:43.507Z,20.42
2024-02-26T12:40:46.505Z,19.85
2024-02-26T12:45:49.931Z,20.37
2024-02-26T12:50:51.928Z,22.40
2024-02-26T12:55:54.530Z,21.67
2024-02-26T13:00:58.568Z,22.85
2024-02-26T13:06:04.396Z,22.30
2024-02-26T13:11:56.379Z,21.98
2024-02-26T13:17:15.647Z,21.70
2024-02-26T13:22:17.480Z,21.00
2024-02-26T13:27:22.949Z,20.02
2024-02-26T13:32:32.862Z,21.05
2024-02-26T13:37:38.065Z,21.15
2024-02-26T13:42:40.126Z,20.62
2024-02-26T13:47:48.044Z,21.23
2024-02-26T13:53:03.418Z,22.35
2024-02-26T14:03:16.782Z,20.70
2024-02-26T14:08:18.947Z,20.25
2024-02-26T14:13:20.977Z,24.08
2024-02-26T14:18:24.417Z,20.15
2024-02-26T14:23:26.384Z,22.62
2024-02-26T14:28:32.772Z,21.25
2024-02-26T14:33:40.616Z,21.25
2024-02-26T14:38:45.638Z,22.00
2024-02-26T14:43:58.031Z,21.75
2024-02-26T14:49:01.421Z,23.23
2024-02-26T14:54:08.661Z,24.58
2024-02-26T14:59:10.527Z,23.45
2024-02-26T15:04:13.777Z,22.83
2024-02-26T15:09:18.850Z,23.92
2024-02-26T15:30:19.572Z,24.63
2024-02-26T15:35:21.475Z,22.73
2024-02-26T15:40:23.525Z,21.98
2024-02-26T15:45:26.832Z,22.90
2024-02-26T15:50:28.741Z,23.10
2024-02-26T15:55:30.546Z,22.15
2024-02-26T16:00:33.871Z,22.87
2024-02-26T16:05:35.758Z,21.70
2024-02-26T16:10:37.638Z,23.02
2024-02-26T16:15:46.300Z,22.58
2024-02-26T16:20:48.190Z,23.95
2024-02-26T16:25:51.807Z,21.92
2024-02-26T16:30:55.754Z,21.90
2024-02-26T16:35:57.665Z,21.48
2024-02-26T16:40:59.536Z,21.35
2024-02-26T16:46:02.964Z,21.77
2024-02-26T16:51:05.403Z,19.55
2024-02-26T16:56:10.533Z,21.85
2024-02-26T17:06:15.291Z,20.92
2024-02-26T17:11:17.161Z,21.02
2024-02-26T17:16:20.401Z,21.65
2024-02-26T17:21:22.364Z,21.12
2024-02-26T17:26:25.568Z,20.90
2024-02-26T17:31:28.794Z,22.20
2024-02-26T17:36:30.648Z,21.83
2024-02-26T17:41:32.728Z,21.45
2024-02-26T17:46:38.823Z,20.85
2024-02-26T17:51:40.968Z,21.30
2024-02-26T17:56:42.870Z,21.33
2024-02-26T18:01:46.505Z,21.37
2024-02-26T18:06:48.643Z,20.17
2024-02-26T18:11:54.299Z,20.23
2024-02-26T18:16:57.757Z,20.85
2024-02-26T18:21:59.589Z,20.73
2024-02-26T18:27:03.758Z,20.15
2024-02-26T18:32:08.942Z,21.90
2024-02-26T18:37:10.690Z,21.25
2024-02-26T18:42:12.513Z,21.83
2024-02-26T18:47:15.717Z,20.92
2024-02-26T18:52:17.503Z,21.35
2024-02-26T18:57:19.480Z,20.85
2024-02-26T19:02:22.828Z,20.90
2024-02-26T19:07:24.707Z,19.50
2024-02-26T19:12:26.600Z,21.37
2024-02-26T19:17:29.947Z,23.98
2024-02-26T19:22:31.805Z,23.17
2024-02-26T19:27:33.662Z,22.37
2024-02-26T19:32:37.159Z,21.33
2024-02-26T19:37:39.121Z,22.35
2024-02-26T19:42:41.061Z,22.83
2024-02-26T19:47:44.402Z,24.52
2024-02-26T19:52:46.215Z,22.02
2024-02-26T19:57:47.995Z,23.17
2024-02-26T20:02:51.293Z,19.77
2024-02-26T20:07:53.194Z,22.67
2024-02-26T20:12:55.102Z,23.08
2024-02-26T20:17:58.486Z,23.00
2024-02-26T20:23:00.290Z,22.33
2024-02-26T20:28:02.157Z,24.15
2024-02-26T20:33:05.605Z,21.90
2024-02-26T20:38:07.486Z,24.98
2024-02-26T20:43:09.350Z,23.67
2024-02-26T20:48:12.755Z,23.55
2024-02-26T20:53:14.729Z,22.45
2024-02-26T20:58:16.601Z,23.75
2024-02-26T21:03:19.880Z,23.73
2024-02-26T21:08:29.018Z,23.33
2024-02-26T21:13:39.122Z,22.83
2024-02-26T21:18:42.423Z,24.12
2024-02-26T21:23:44.307Z,25.85
2024-02-26T21:28:50.536Z,26.75
2024-02-26T21:33:53.923Z,26.27
2024-02-26T21:38:56.939Z,25.12
2024-02-26T21:43:58.785Z,27.02
2024-02-26T21:49:02.272Z,25.88
2024-02-26T21:54:04.201Z,25.25
2024-02-26T21:59:06.058Z,29.92
2024-02-26T22:04:09.560Z,25.45
2024-02-26T22:09:11.944Z,26.58
2024-02-26T22:14:15.875Z,25.58
2024-02-26T22:19:19.250Z,28.73
2024-02-26T22:24:21.248Z,26.48
2024-02-26T22:29:24.110Z,27.40
2024-02-26T22:34:28.555Z,26.40
2024-02-26T22:39:31.388Z,27.08
2024-02-26T22:44:33.370Z,24.40
2024-02-26T22:49:36.708Z,26.37
2024-02-26T22:54:38.658Z,27.35
2024-02-26T22:59:40.492Z,29.05
2024-02-26T23:04:43.728Z,27.27
2024-02-26T23:09:45.553Z,28.62
2024-02-26T23:14:47.380Z,27.67
2024-02-26T23:19:50.621Z,30.40
2024-02-26T23:24:52.599Z,28.50
2024-02-26T23:29:54.417Z,25.40
2024-02-26T23:34:57.650Z,28.40
2024-02-26T23:39:59.492Z,27.92
2024-02-26T23:45:01.385Z,28.67
2024-02-26T23:50:05.138Z,30.30
2024-02-26T23:55:07.578Z,28.87
